Tiempo atmosférico en la estación meteorológica de Eivissa Aeropuerto, Illes Balears (6 m.)

Fecha
DESCASC
Temp. máxima en grados centígrados (hora)
DESCASC
Temp. mínima en grados centígrados (hora)
DESCASC
Temp. media en grados centígrados
DESCASC
Racha de viento máxima en m/sg (hora)
DESCASC
Velocidad máxima media en intervalos de 10 minutos(hora)
DESCASC
Precipitaciones diarias en mm
DESCASC
Precipitaciones de 00:00 a 06:00 en mm
DESCASC
Precipitaciones de 06:00 a 12:00 en mm
DESCASC
Precipitaciones de 12:00 a 18:00 en mm
DESCASC
Precipitaciones de 18:00 a 24:00 en mm
DESCASC

Gráficas

Temp. máximas Temp. mínimas Temp. medias Precipitaciones Rachas de viento máximas Velocidades máximas media en intervalos de 10 minutos

Datos horarios

Fecha y hora oficial Temperatura (ºC) Velocidad del viento (km/h) Dirección del viento Racha (km/h) Dirección de racha Precipitación (mm) Presión (hPa) Tendencia (hPa) Humedad (%)
2017-09-20 23:00:00 20.9 8 Sudeste 15 Sudeste 0 1017.3 0.4 75
2017-09-20 22:00:00 21.2 9 Sudeste 15 Sudeste 0 1017.2 0.1 68
2017-09-20 21:00:00 22.2 10 Sudeste 18 Sur 0 1016.9 -0.1 68
2017-09-20 20:00:00 22.9 14 Sur 21 Sur 0 1016.9 -0.5 70
2017-09-20 19:00:00 24 13 Sur 24 Sudoeste 0 1017.1 -0.7 67
2017-09-20 18:00:00 24.5 16 Sudoeste 26 Sudoeste 0 1017 -1.2 64
2017-09-20 17:00:00 24.7 19 Sudoeste 28 Sudoeste 0 1017.4 -1.2 62
2017-09-20 16:00:00 25.2 16 Sudoeste 28 Sudoeste 0 1017.8 -1.3 51
2017-09-20 15:00:00 25.2 20 Sudoeste 26 Sur 0 1018.2 -1.1 51
2017-09-20 14:00:00 25.4 11 Sur 21 Sur 0 1018.6 -0.9 49
2017-09-20 13:00:00 25.4 12 Sur 18 Sur 0 1019.1 -0.1 50
2017-09-20 12:00:00 24.7 10 Sur 18 Sudeste 0 1019.3 0.2 51
2017-09-20 11:00:00 22.9 10 Sur 13 Sur 0 1019.5 0.5 63
2017-09-20 10:00:00 22.1 0 Calma 15 Norte 0 1019.2 0.3 67
2017-09-20 09:00:00 17.8 0 Calma 8 Noroeste 0 1019.1 0.3 85
2017-09-20 08:00:00 15.3 3 Noroeste 9 Norte 0 1019 0.1 91
2017-09-20 07:00:00 15.4 3 Noroeste 22 Norte 0 1018.9 -0.2 92
2017-09-20 06:00:00 15.2 3 Norte 8 Norte 0 1018.8 -0.5 92
2017-09-20 05:00:00 16 2 Norte 11 Norte 0 1018.9 -0.6 93
2017-09-20 04:00:00 15.9 4 Norte 11 Norte 0 1019.1 -0.5 91
2017-09-20 03:00:00 16.5 5 Norte 11 Norte 0 1019.3 -0.5 90
2017-09-20 02:00:00 16.7 7 Norte 13 Norte 0 1019.5 -0.1 89
2017-09-20 01:00:00 17.2 11 Norte 18 Norte 0 1019.6 0.5 86
2017-09-20 00:00:00 17.8 11 Norte 18 Norte 0 1019.8 1.3 84
2017-09-19 23:00:00 17.8 9 Norte 13 Norte 0 1019.6 1.4 82
2017-09-19 22:00:00 19.4 6 Nordeste 17 Nordeste 0 1019.1 1.2 76
2017-09-19 21:00:00 20.7 10 Nordeste 17 Este 0 1018.5 0.6 70
2017-09-19 20:00:00 21.2 12 Este 21 Este 0 1018.2 0.3 68
2017-09-19 19:00:00 22.2 14 Este 22 Nordeste 0 1017.9 -0.2 67
2017-09-19 18:00:00 22.9 14 Este 24 Este 0 1017.9 -0.7 64
2017-09-19 17:00:00 23.5 15 Este 24 Este 0 1017.9 -1 66
2017-09-19 16:00:00 23.7 15 Este 26 Este 0 1018.1 -1.2 66
2017-09-19 15:00:00 24.2 18 Este 26 Este 0 1018.6 -0.9 69
2017-09-19 14:00:00 24.1 7 Este 17 Este 0 1018.9 -0.4 62
2017-09-19 13:00:00 24.7 3 Este 21 Norte 0 1019.3 0.4 61
2017-09-19 12:00:00 23 14 Norte 18 Noroeste 0 1019.5 0.9 70
2017-09-19 11:00:00 22.9 0 Calma -- -- 0 1019.3 1 66
2017-09-19 10:00:00 22.6 0 Calma 5 Oeste 0 1018.9 0.9 70
2017-09-19 09:00:00 19.4 0 Calma 8 Sur 0 1018.6 0.9 83
2017-09-19 08:00:00 17.2 0 Calma 8 Norte 0 1018.3 0.6 88
2017-09-19 07:00:00 16.7 2 Noroeste 18 Oeste 0 1018 0.2 89
2017-09-19 06:00:00 16.8 0 Calma 5 Noroeste 0 1017.7 -0.1 87
2017-09-19 05:00:00 16.5 0 Calma 18 Norte 0 1017.7 -0.3 86
2017-09-19 04:00:00 16.7 5 Norte 13 Noroeste 0 1017.8 -0.2 86
2017-09-19 03:00:00 16.9 0 Calma 11 Noroeste 0 1017.8 -0.3 87
2017-09-19 02:00:00 17.5 8 Norte 11 Norte 0 1018 0.2 88
2017-09-19 01:00:00 18.2 7 Noroeste 17 Noroeste 0 1018 0.9 88
2017-09-19 00:00:00 18.9 4 Noroeste 15 Noroeste 0 1018.1 1.9 86
2017-09-18 23:00:00 20.3 7 Norte 11 Noroeste 0 1017.8 2.8 83
2017-09-18 22:00:00 21.2 8 Nordeste 18 Nordeste 0 1017.1 3 80
2017-09-18 21:00:00 21.9 13 Nordeste 26 Nordeste 0 1016.2 2.5 77
2017-09-18 20:00:00 22.7 14 Nordeste 24 Norte 0 1015 1.5 70
2017-09-18 19:00:00 24.6 12 Nordeste 24 Norte 0 1014.1 0.6 58
2017-09-18 18:00:00 25.1 16 Nordeste 30 Norte 0 1013.7 0.1 54
2017-09-18 17:00:00 25.9 16 Noroeste 35 Noroeste 0 1013.5 -0.5 50
2017-09-18 16:00:00 26.5 22 Noroeste 37 Noroeste 0 1013.5 -0.4 35
2017-09-18 15:00:00 26.5 19 Oeste 35 Oeste 0 1013.6 -0.9 44
2017-09-18 14:00:00 26.9 25 Noroeste 37 Oeste 0 1014 -0.4 41
2017-09-18 13:00:00 25.3 26 Sudoeste 37 Sudoeste 0 1013.9 -0.2 71
2017-09-18 12:00:00 24.6 28 Sudoeste 37 Sudoeste 0 1014.5 0.6 74
2017-09-18 11:00:00 24.6 26 Sudoeste 39 Sudoeste 0 1014.4 0.6 74
2017-09-18 10:00:00 23.6 26 Sudoeste 35 Sudoeste 0 1014.1 0.6 77
2017-09-18 09:00:00 23 23 Sudoeste 33 Sudoeste 0 1013.9 0.3 79
2017-09-18 08:00:00 22.5 22 Sudoeste 32 Sudoeste 0 1013.8 0 82
2017-09-18 07:00:00 22.6 19 Sudoeste 30 Sudoeste 0 1013.5 -0.5 84
2017-09-18 06:00:00 22.5 20 Sudoeste 32 Sudoeste 0 1013.6 -0.8 84
2017-09-18 05:00:00 22.5 22 Sudoeste 30 Sudoeste 0 1013.8 -0.9 78
2017-09-18 04:00:00 22.7 20 Sudoeste 32 Sudoeste 0 1014 -1.3 78
2017-09-18 03:00:00 22.9 20 Sudoeste 30 Sur 0 1014.4 -1.3 80
2017-09-18 02:00:00 23.1 21 Sudoeste 28 Sur 0 1014.7 -1.1 79
2017-09-18 01:00:00 23.1 17 Sur 28 Sur 0 1015.3 -0.3 80
2017-09-18 00:00:00 22.7 17 Sur 28 Sur 0 1015.7 0.5 83
2017-09-17 23:00:00 22.7 16 Sur 26 Sur 0 1015.8 0.8 81
2017-09-17 22:00:00 22.6 13 Sur 21 Sur 0 1015.6 0.5 80
2017-09-17 21:00:00 22.3 8 Sudeste 21 Sur 0 1015.2 0 75
2017-09-17 20:00:00 22.9 10 Sudeste 21 Sur 0 1015 -0.3 74
2017-09-17 19:00:00 24.1 13 Sur 24 Sur 0 1015.1 -0.6 70
2017-09-17 18:00:00 25.1 17 Sur 26 Sur 0 1015.2 -1.2 66
2017-09-17 17:00:00 25 11 Sur 22 Sur 0 1015.3 -1.5 64
2017-09-17 16:00:00 25.4 14 Sur 24 Sur 0 1015.7 -1.4 60
2017-09-17 15:00:00 24.6 11 Sudoeste 21 Sudoeste 0 1016.4 -1.2 63
2017-09-17 14:00:00 24.3 8 Sudoeste 15 Sudoeste 0 1016.8 -0.8 63
2017-09-17 13:00:00 23.9 8 Sur 17 Sudeste 0 1017.1 0 65
2017-09-17 12:00:00 23.1 8 Este 15 Este 0 1017.6 0.9 68
2017-09-17 11:00:00 22 9 Este 15 Este 0 1017.6 1.2 71
2017-09-17 10:00:00 20.9 3 Nordeste 11 Norte 0 1017.1 1.3 67
2017-09-17 09:00:00 17.5 5 Noroeste 13 Norte 0 1016.7 1.1 76
2017-09-17 08:00:00 13.9 0 Calma 22 Norte 0 1016.4 0.9 91
2017-09-17 07:00:00 14.1 4 Norte 15 Norte 0 1015.8 0.4 88
2017-09-17 06:00:00 14.2 0 Calma 9 Noroeste 0 1015.6 0.2 93
2017-09-17 05:00:00 14.9 0 Calma 17 Norte 0 1015.5 0 92
2017-09-17 04:00:00 14.9 2 Norte 26 Norte 0 1015.4 -0.3 93
2017-09-17 03:00:00 15.1 2 Norte 9 Norte 0 1015.4 -0.2 93
2017-09-17 02:00:00 15.1 6 Norte 11 Norte 0 1015.5 0.3 91
2017-09-17 01:00:00 15.4 3 Norte 9 Noroeste 0 1015.7 1.2 90
2017-09-17 00:00:00 16.2 6 Noroeste 17 Norte 0 1015.6 2.1 88
2017-09-16 23:00:00 17 7 Norte 26 Noroeste 0 1015.2 2.5 87
2017-09-16 22:00:00 17.6 10 Norte 30 Norte 0 1014.5 2.6 86
2017-09-16 21:00:00 19 8 Nordeste 15 Norte 0 1013.5 1.8 79
2017-09-16 20:00:00 19.7 10 Nordeste 18 Este 0 1012.7 1.1 76
2017-09-16 19:00:00 20 13 Este 26 Este 0 1011.9 0.6 77
2017-09-16 18:00:00 20.4 14 Este 22 Este 0 1011.7 -0.3 77
2017-09-16 17:00:00 20.5 15 Este 24 Este 0 1011.6 -0.6 76
2017-09-16 16:00:00 21.2 13 Nordeste 24 Norte 0 1011.3 -1 71
2017-09-16 15:00:00 19.9 17 Nordeste 35 Norte 0 1012 -0.6 76
2017-09-16 14:00:00 20.1 15 Nordeste 33 Norte 0 1012.2 -0.6 80
2017-09-16 13:00:00 19.1 12 Nordeste 26 Nordeste 0 1012.3 0.6 84
2017-09-16 12:00:00 18.8 16 Nordeste 42 Norte 3.4 1012.6 1.6 90
2017-09-16 11:00:00 17.7 11 Norte 24 Norte 2.3 1012.8 2.5 90
2017-09-16 10:00:00 17.7 10 Norte 26 Norte 0.9 1011.7 1.7 86
2017-09-16 09:00:00 17.5 11 Norte 35 Norte 0.7 1011 1.2 86
2017-09-16 08:00:00 19.4 15 Norte 30 Norte 0 1010.3 0.5 72
2017-09-16 07:00:00 19.4 16 Norte 28 Norte 0 1010 -0.1 77
2017-09-16 06:00:00 19.6 12 Norte 24 Norte 0 1009.8 -0.5 73
2017-09-16 05:00:00 19.7 18 Nordeste 28 Norte 0 1009.8 -0.5 72
2017-09-16 04:00:00 19.7 19 Nordeste 35 Norte 0 1010.1 -0.4 71
2017-09-16 03:00:00 19.5 18 Nordeste 37 Nordeste 0 1010.3 -0.2 76
2017-09-16 02:00:00 19.2 26 Nordeste 42 Norte 0 1010.3 0.2 77
2017-09-16 01:00:00 19.7 27 Norte 46 Norte 0 1010.5 0.9 76
2017-09-16 00:00:00 20.2 28 Norte 46 Nordeste 0 1010.5 1.2 76
2017-09-15 23:00:00 20.1 28 Norte 48 Norte 0 1010.1 1.7 80
2017-09-15 22:00:00 20.2 32 Norte 46 Nordeste 0 1009.6 1.9 82
2017-09-15 21:00:00 21.2 30 Norte 42 Norte 0 1009.3 2.1 80
2017-09-15 20:00:00 21.6 27 Norte 45 Norte 0 1008.4 1.1 80
2017-09-15 19:00:00 22.6 28 Nordeste 46 Nordeste 0 1007.7 0.5 78
2017-09-15 18:00:00 24.5 28 Norte 39 Norte 0 1007.2 -0.6 73
2017-09-15 17:00:00 25.4 16 Norte 28 Oeste 0 1007.3 -0.9 70
2017-09-15 16:00:00 26.7 14 Sudoeste 24 Sudoeste 0 1007.2 -1.6 68
2017-09-15 15:00:00 26.6 17 Sudoeste 24 Sudoeste 0 1007.8 -1.5 67
2017-09-15 14:00:00 25.6 14 Sudoeste 18 Sudoeste 0 1008.2 -1.4 71
2017-09-15 13:00:00 26.2 11 Sur 24 Sur 0 1008.8 -1 69
2017-09-15 12:00:00 26.4 12 Sudeste 24 Sur 0 1009.3 -0.4 69
2017-09-15 11:00:00 25.8 15 Sur 24 Sur 0 1009.6 -0.2 71
2017-09-15 10:00:00 24.7 10 Sudeste 18 Sudeste 0 1009.8 0.1 78
2017-09-15 09:00:00 24.4 9 Sudeste 21 Sur 0 1009.7 -0.4 78
2017-09-15 08:00:00 23.7 10 Sur 18 Sudeste 0 1009.8 -1.1 82
2017-09-15 07:00:00 23.7 12 Sudeste 26 Sudeste 0 1009.7 -1.4 79
2017-09-15 06:00:00 23.9 14 Este 24 Sudeste 0 1010.1 -1.5 77
2017-09-15 05:00:00 23.9 15 Este 26 Este 0 1010.9 -1.1 76
2017-09-15 04:00:00 24 20 Nordeste 30 Norte 0 1011.1 -1.8 78
2017-09-15 03:00:00 23.9 18 Este 33 Norte 0 1011.6 -1.6 77
2017-09-15 02:00:00 23.7 20 Nordeste 32 Este 0 1012 -1.4 81
2017-09-15 01:00:00 23.5 13 Este 24 Este 0 1012.9 -0.2 85
2017-09-15 00:00:00 22.7 8 Nordeste 15 Este 0 1013.2 0.7 92
2017-09-14 23:00:00 23.1 5 Nordeste 13 Norte 0 1013.4 1.1 87
2017-09-14 22:00:00 22.7 5 Norte 9 Oeste 0 1013.1 0.8 89
2017-09-14 21:00:00 23.2 0 Calma 8 Nordeste 0 1012.5 0.2 87
2017-09-14 20:00:00 24.1 0 Calma 11 Sur 0 1012.3 -0.5 86
2017-09-14 19:00:00 25.1 9 Sur 22 Sudoeste 0 1012.3 -0.7 82
2017-09-14 18:00:00 25.5 14 Sudoeste 26 Sudoeste 0 1012.3 -1.3 80
2017-09-14 17:00:00 25.6 15 Sudoeste 24 Sudoeste 0 1012.8 -1.4 81
2017-09-14 16:00:00 26.1 16 Sudoeste 26 Sudoeste 0 1013 -1.8 79
2017-09-14 15:00:00 25.9 19 Sudoeste 28 Sudoeste 0 1013.6 -1.7 79
2017-09-14 14:00:00 26.1 17 Sudoeste 30 Sudoeste 0 1014.2 -1.2 78
2017-09-14 13:00:00 26 22 Sudoeste 30 Sudoeste 0 1014.8 -0.4 78
2017-09-14 12:00:00 26 21 Sudoeste 28 Sudoeste 0 1015.3 0.1 78
2017-09-14 11:00:00 25.2 17 Sudoeste 22 Sudoeste 0 1015.4 0 80
2017-09-14 10:00:00 24.7 15 Sur 24 Sudoeste 0 1015.2 -0.2 80
2017-09-14 09:00:00 23.9 11 Sur 17 Sur 0 1015.2 -0.5 82
2017-09-14 08:00:00 22.6 9 Sur 17 Sur 0 1015.4 -0.7 87
2017-09-14 07:00:00 22.4 9 Sur 18 Sur 0 1015.4 -1 88
2017-09-14 06:00:00 22.2 8 Sur 13 Sur 0 1015.7 -1.3 89
2017-09-14 05:00:00 22.3 6 Sur 11 Sur 0 1016.1 -1.5 89
2017-09-14 04:00:00 22.6 5 Sudeste 11 Sur 0 1016.4 -1.7 88
2017-09-14 03:00:00 22.3 3 Sudeste 9 Sudeste 0 1017 -1.5 88
2017-09-14 02:00:00 22.7 0 Calma 15 Sur 0 1017.6 -1.3 87
2017-09-14 01:00:00 23.3 4 Sur 18 Sur 0 1018.1 -1.1 84
2017-09-14 00:00:00 23.2 5 Sur 15 Sur 0 1018.5 -0.4 84
2017-09-13 23:00:00 23.4 5 Sudeste 21 Sur 0 1018.9 0.1 81
2017-09-13 22:00:00 23.6 7 Sudeste 18 Sudeste 0 1019.2 0.1 80
2017-09-13 21:00:00 23.7 6 Sudeste 21 Sur 0 1018.9 -0.9 77
2017-09-13 20:00:00 24.2 10 Sudeste 24 Sudeste 0 1018.8 -1.5 76
2017-09-13 19:00:00 25.5 14 Sudeste 28 Este 0 1019.1 -1.7 73
2017-09-13 18:00:00 26.8 14 Sudeste 26 Sudeste 0 1019.8 -1.3 61
2017-09-13 17:00:00 26.5 15 Sudeste 26 Este 0 1020.3 -1.3 67
2017-09-13 16:00:00 26.9 15 Este 28 Sudeste 0 1020.8 -1.1 63
2017-09-13 15:00:00 26.8 16 Este 28 Este 0 1021.1 -1.1 63
2017-09-13 14:00:00 26.7 14 Este 24 Este 0 1021.6 -0.4 62
2017-09-13 13:00:00 26.5 14 Este 22 Este 0 1021.9 0.3 63
2017-09-13 12:00:00 26.4 11 Este 21 Este 0 1022.2 1.3 64
2017-09-13 11:00:00 25.6 9 Este 17 Este 0 1022 1.7 68
2017-09-13 10:00:00 24.8 5 Este -- -- -- 1021.6 1.7 72
2017-09-13 09:00:00 21.7 0 Calma 8 Norte 0 1020.9 1.4 87
2017-09-13 08:00:00 19 5 Norte 13 Noroeste 0 1020.3 1 94
2017-09-13 07:00:00 18.6 0 Calma 13 Noroeste 0 1019.9 0.6 95
2017-09-13 06:00:00 18.9 4 Norte 13 Norte 0 1019.5 0.2 94
2017-09-13 05:00:00 19.2 10 Noroeste 11 Norte 0 1019.3 0 93
2017-09-13 04:00:00 19.6 6 Norte 11 Norte 0 1019.3 0 92
2017-09-13 03:00:00 19.6 9 Norte -- -- 0 1019.3 0.2 92
2017-09-13 02:00:00 19.7 9 Norte 11 Norte 0 1019.3 0.4 90
2017-09-13 01:00:00 20.3 3 Norte 26 Norte 0 1019.3 1.5 83
2017-09-13 00:00:00 20.3 5 Norte 17 Norte 0 1019.1 2.3 79
2017-09-12 23:00:00 20.8 3 Norte 13 Norte 0 1018.9 3.3 68
2017-09-12 22:00:00 21.7 10 Norte 26 Norte 0 1017.8 3 58
2017-09-12 21:00:00 23 15 Norte 35 Norte 0 1016.8 1.8 55
2017-09-12 20:00:00 24.1 19 Norte 30 Nordeste 0 1015.6 1 50
2017-09-12 19:00:00 25.1 26 Nordeste 39 Norte 0 1014.8 0.4 45
2017-09-12 18:00:00 26.1 28 Norte 41 Norte 0 1015 0.5 38
2017-09-12 17:00:00 26.4 23 Norte 37 Norte 0 1014.6 0.6 46
2017-09-12 16:00:00 26 24 Norte 42 Norte 0 1014.4 0.6 45
2017-09-12 15:00:00 27 22 Nordeste 45 Nordeste 0 1014.5 1.1 43
2017-09-12 14:00:00 26.8 24 Norte 48 Norte 0 1014 1.2 42
2017-09-12 13:00:00 26.7 29 Norte 46 Nordeste 0 1013.8 1.7 47
2017-09-12 12:00:00 26.5 31 Norte 54 Norte 0 1013.4 2.1 47
2017-09-12 11:00:00 26.2 27 Norte 42 Norte 0 1012.8 2.2 47
2017-09-12 10:00:00 25.5 28 Norte 45 Norte 0 1012.1 2.7 52
2017-09-12 09:00:00 24.2 31 Norte 52 Norte 0 1011.3 2.7 61
2017-09-12 08:00:00 23.1 24 Norte 42 Norte 0 1010.6 2.3 71
2017-09-12 07:00:00 23.6 22 Nordeste 30 Nordeste 0 1009.4 0.9 74
2017-09-12 06:00:00 24.2 12 Nordeste 26 Norte 0 1008.6 0.1 75
2017-09-12 05:00:00 23.9 12 Sudoeste 22 Sudoeste 0 1008.3 -0.2 77
2017-09-12 04:00:00 23.8 9 Sudoeste 18 Oeste 0 1008.5 -0.3 84
2017-09-12 03:00:00 23.6 10 Sudoeste 30 Sudoeste 0 1008.5 -0.6 83
2017-09-12 02:00:00 24.2 19 Sudoeste 26 Sudoeste 0 1008.5 -0.7 75
2017-09-12 01:00:00 24.3 19 Sudoeste 26 Sudoeste 0 1008.8 -0.5 73
2017-09-12 00:00:00 24.4 19 Sudoeste 30 Sudoeste 0 1009.1 0.1 72
2017-09-11 23:00:00 24.4 23 Sudoeste 33 Sudoeste 0 1009.2 0.3 73
2017-09-11 22:00:00 24.5 24 Sudoeste 33 Sudoeste 0 1009.3 0.2 70
2017-09-11 21:00:00 24.6 24 Sudoeste 37 Sudoeste 0 1009 -0.4 71
2017-09-11 20:00:00 24.9 27 Sudoeste 37 Sudoeste 0 1008.9 -0.6 67
2017-09-11 19:00:00 25.8 23 Sudoeste 33 Sudoeste 0 1009.1 -0.9 65
2017-09-11 18:00:00 26.9 23 Sudoeste 37 Sudoeste 0 1009.4 -1.3 59
2017-09-11 17:00:00 27 26 Sudoeste 35 Sudoeste 0 1009.5 -1.5 58
2017-09-11 16:00:00 27.1 27 Sudoeste 39 Sudoeste 0 1010 -1 59
2017-09-11 15:00:00 27.1 24 Sudoeste 37 Sudoeste 0 1010.7 -0.3 59
2017-09-11 14:00:00 27.3 24 Sudoeste 39 Sudoeste 0 1011 0.5 58
2017-09-11 13:00:00 27.8 31 Sudoeste 41 Sudoeste 0 1011 0.9 44
2017-09-11 12:00:00 27.1 22 Sudoeste 33 Sudoeste 0 1011 1 51
2017-09-11 11:00:00 27.5 15 Oeste 30 Oeste 0 1010.5 0.7 44
2017-09-11 10:00:00 26.1 13 Sudoeste 22 Oeste 0 1010.1 0.6 50
2017-09-11 09:00:00 23.7 6 Noroeste 15 Oeste 0 1010 0.7 56
2017-09-11 08:00:00 21.7 9 Oeste 17 Oeste 0 1009.8 0.5 63
2017-09-11 07:00:00 21.4 10 Oeste 22 Oeste 0 1009.5 0 65
2017-09-11 06:00:00 21.3 11 Noroeste 17 Oeste 0 1009.3 -0.8 73
2017-09-11 05:00:00 22.8 16 Oeste 30 Oeste 0 1009.3 -1.6 70
2017-09-11 04:00:00 22.8 17 Oeste 30 Sudoeste 0 1009.5 -1.8 73
2017-09-11 03:00:00 22.6 20 Sudoeste 30 Sur 0 1010.1 -1.5 70
2017-09-11 02:00:00 22.6 20 Sudoeste 30 Sudoeste 0 1010.9 -0.6 64
2017-09-11 01:00:00 22.3 19 Sudoeste 32 Sudoeste 0 1011.3 0.1 56
2017-09-11 00:00:00 21.2 15 Sudoeste 24 Sudoeste 0 1011.6 1 60
2017-09-10 23:00:00 19.5 6 Oeste 17 Oeste 0 1011.5 1.6 67
2017-09-10 22:00:00 19.6 4 Oeste 15 Oeste 0 1011.2 1.8 60
2017-09-10 21:00:00 21 10 Noroeste 17 Oeste 0 1010.6 1.4 53
2017-09-10 20:00:00 23.1 11 Oeste 18 Oeste 0 1009.9 0.9 43
2017-09-10 19:00:00 24.2 13 Oeste 26 Oeste 0 1009.4 0.2 37
2017-09-10 18:00:00 24.1 16 Oeste 32 Noroeste 0 1009.2 -0.1 38
2017-09-10 17:00:00 24.2 19 Oeste 37 Oeste 0 1009 0.1 41
2017-09-10 16:00:00 23.6 19 Oeste 39 Oeste 0 1009.2 0.3 45
2017-09-10 15:00:00 23.9 22 Noroeste 39 Oeste 0 1009.3 0.6 43
2017-09-10 14:00:00 22.5 19 Noroeste 41 Noroeste 0 1008.9 0.8 46
2017-09-10 13:00:00 21.9 17 Norte 41 Noroeste 0 1008.9 2 48
2017-09-10 12:00:00 21.6 23 Noroeste 48 Norte 0 1008.7 2.1 49
2017-09-10 11:00:00 21.7 31 Noroeste 54 Noroeste 0 1008.1 2.1 46
2017-09-10 10:00:00 21.1 33 Noroeste 54 Norte 0 1006.9 1.6 49
2017-09-10 09:00:00 20.4 31 Noroeste 50 Noroeste 0 1006.6 2 52
2017-09-10 08:00:00 20.1 19 Noroeste 37 Norte 0 1006 1.6 56
2017-09-10 07:00:00 20.3 25 Noroeste 45 Noroeste 0 1005.3 1 55
2017-09-10 06:00:00 20.1 17 Norte 45 Norte 0 1004.6 -0.2 64
2017-09-10 05:00:00 21 20 Noroeste 32 Noroeste 0 1004.4 0.5 57
2017-09-10 04:00:00 21.1 8 Noroeste 37 Noroeste 0 1004.3 -0.3 61
2017-09-10 03:00:00 20.8 13 Noroeste 24 Noroeste 0 1004.8 0 64
2017-09-10 02:00:00 20.2 5 Noroeste 9 Noroeste 0 1003.9 -0.5 74
2017-09-10 01:00:00 20.3 0 Calma 17 Noroeste 0.3 1004.6 0.4 79
2017-09-10 00:00:00 20.6 12 Norte 22 Noroeste 0.2 1004.8 2 83
2017-09-09 23:00:00 21.2 12 Nordeste 28 Norte 0 1004.4 1.6 87
2017-09-09 22:00:00 21.2 12 Norte 32 Nordeste 0.5 1004.2 1.5 87
2017-09-09 21:00:00 22.4 18 Norte 41 Norte 0.2 1002.8 0.7 72
2017-09-09 20:00:00 23.4 21 Norte 41 Norte 0 1002.8 1.1 63
2017-09-09 19:00:00 24.1 23 Norte 45 Norte 0 1002.7 0.9 64
2017-09-09 18:00:00 25.3 30 Norte 41 Nordeste 0 1002.1 -0.3 64
2017-09-09 17:00:00 28.1 20 Oeste 39 Noroeste 0 1001.7 -1 48
2017-09-09 16:00:00 26.5 23 Sudoeste 37 Sudoeste 0 1001.8 -1.4 82
2017-09-09 15:00:00 27 31 Sudoeste 41 Sudoeste 0 1002.4 -1.4 79
2017-09-09 14:00:00 26.6 28 Sudoeste 37 Sudoeste 0 1002.7 -1.4 80
2017-09-09 13:00:00 26.5 30 Sudoeste 41 Sudoeste 0 1003.2 -0.8 80
2017-09-09 12:00:00 26.5 30 Sudoeste 46 Sudoeste 0 1003.8 -0.4 79
2017-09-09 11:00:00 26.1 28 Sudoeste 41 Sudoeste 0 1004.1 -0.1 81
2017-09-09 10:00:00 25.1 27 Sudoeste 39 Sudoeste 0 1004 -0.3 84
2017-09-09 09:00:00 24.7 27 Sudoeste 41 Sudoeste 0 1004.2 -0.9 83
2017-09-09 08:00:00 24 24 Sudoeste 39 Sudoeste 0 1004.2 -1.3 81
2017-09-09 07:00:00 24.1 28 Sudoeste 42 Sudoeste 0 1004.3 -1.5 81
2017-09-09 06:00:00 24.4 28 Sudoeste 41 Sudoeste 0 1005.1 -2 84
2017-09-09 05:00:00 24.7 29 Sudoeste 39 Sudoeste 0 1005.5 -2.7 80
2017-09-09 04:00:00 24.3 21 Sur 32 Sur 0 1005.8 -3.3 81
2017-09-09 03:00:00 24 13 Sur 24 Sur 0 1007.1 -2.5 84
2017-09-09 02:00:00 23.9 17 Sur 26 Sur 0 1008.2 -1.6 84
2017-09-09 01:00:00 24 16 Sur 24 Sur 0 1009.1 -0.8 84
2017-09-09 00:00:00 24.1 17 Sur 26 Sur 0 1009.6 -0.1 83
2017-09-08 23:00:00 24.2 17 Sur 26 Sur 0 1009.8 0 82
2017-09-08 22:00:00 24.1 12 Sur 24 Sur 0 1009.9 -0.5 83
2017-09-08 21:00:00 24.7 18 Sur 26 Sur 0 1009.7 -1.1 80
2017-09-08 20:00:00 24.8 12 Sur 21 Sur 0 1009.8 -1.6 79
2017-09-08 19:00:00 25.8 13 Sur 24 Sudoeste 0 1010.4 -1.4 76
2017-09-08 18:00:00 26.2 15 Sudoeste 24 Sur 0 1010.8 -1.6 75
2017-09-08 17:00:00 26.5 14 Sudoeste 22 Sudoeste 0 1011.4 -1.4 75
2017-09-08 16:00:00 26.9 15 Sudoeste 24 Sudoeste 0 1011.8 -1.4 72
2017-09-08 15:00:00 27 15 Sudoeste 24 Sudoeste 0 1012.4 -1.3 71
2017-09-08 14:00:00 26.7 16 Sudoeste 22 Sudoeste 0 1012.8 -1.1 71
2017-09-08 13:00:00 26.7 15 Sudoeste 22 Sudoeste 0 1013.2 -0.5 70
2017-09-08 12:00:00 26.4 15 Sudoeste 24 Sudoeste 0 1013.7 0.1 73
2017-09-08 11:00:00 26.1 13 Sudoeste 21 Oeste 0 1013.9 0.6 74
2017-09-08 10:00:00 25.1 3 Sur 8 Sur 0 1013.7 0.8 79
2017-09-08 09:00:00 22.9 0 Calma 9 Norte 0 1013.6 0.6 89
2017-09-08 08:00:00 20.9 4 Norte 11 Norte 0 1013.3 -0.3 94
2017-09-08 07:00:00 19.9 0 Calma 5 Noroeste 0 1012.9 -0.9 97
2017-09-08 06:00:00 20.4 0 Calma 9 Noroeste 0 1013 -1.2 95
2017-09-08 05:00:00 20.5 5 Norte 8 Norte 0 1013.6 -0.8 96
2017-09-08 04:00:00 20.5 0 Calma 8 Oeste 0 1013.8 -0.7 95
2017-09-08 03:00:00 20.6 0 Calma 11 Noroeste 0 1014.2 -0.6 95
2017-09-08 02:00:00 20.7 4 Norte 9 Norte 0 1014.4 -0.4 94
2017-09-08 01:00:00 21.4 0 Calma 11 Noroeste 0 1014.5 0.1 92
2017-09-08 00:00:00 21.6 0 Calma 13 Noroeste 0 1014.8 1.2 90
2017-09-07 23:00:00 22 8 Noroeste 13 Oeste 0 1014.8 1.4 89
2017-09-07 22:00:00 22.5 8 Norte 13 Norte 0 1014.4 0.9 86
2017-09-07 21:00:00 23.6 3 Sudeste 5 Sur 0 1013.6 0.1 84
2017-09-07 20:00:00 24.9 5 Sudoeste 11 Sudoeste 0 1013.4 -0.5 76
2017-09-07 19:00:00 25.8 9 Sudoeste 17 Sudoeste 0 1013.5 -0.8 70
2017-09-07 18:00:00 26.3 12 Sudoeste 17 Sudoeste 0 1013.5 -1.5 65
2017-09-07 17:00:00 26.2 13 Sudoeste 17 Sudoeste 0 1013.9 -1.6 72
2017-09-07 16:00:00 27.2 0 Calma 15 Noroeste 0 1014.3 -1.7 70
2017-09-07 15:00:00 25.7 3 Oeste 15 Noroeste 0 1015 -0.9 76
2017-09-07 14:00:00 22.8 7 Sudoeste 41 Nordeste 33.9 1015.5 -0.6 92
2017-09-07 13:00:00 23.7 17 Sudeste 35 Sudeste 0.2 1016 0.6 83
2017-09-07 12:00:00 26.7 4 Sudeste 28 Noroeste 0 1015.9 0.5 68
2017-09-07 11:00:00 26.7 8 Este 17 Este 0.1 1016.1 0.7 69
2017-09-07 10:00:00 26.2 3 Norte 11 Norte 0 1015.4 0.5 71
2017-09-07 09:00:00 23.4 4 Norte 15 Noroeste 0 1015.4 0.2 82
2017-09-07 08:00:00 21.9 9 Noroeste 15 Norte 0 1015.4 -0.3 87
2017-09-07 07:00:00 21.3 6 Noroeste 11 Noroeste 0 1014.9 -1.2 89
2017-09-07 06:00:00 21.7 0 Calma 11 Norte 0 1015.2 -1.1 88
2017-09-07 05:00:00 22.1 7 Norte 11 Oeste 0 1015.7 -1.1 87
2017-09-07 04:00:00 22.9 6 Norte 15 Norte 0 1016.1 -1.2 84
2017-09-07 03:00:00 24.6 5 Este 15 Este 0 1016.3 -1 77
2017-09-07 02:00:00 23.7 2 Este 13 Norte 0 1016.8 -0.6 81
2017-09-07 01:00:00 24.6 6 Este 13 Norte 0 1017.3 -0.1 78
2017-09-07 00:00:00 24.9 7 Este 18 Este 0 1017.3 0.2 77
2017-09-06 23:00:00 24.8 9 Este 15 Este 0 1017.4 0.4 78
2017-09-06 22:00:00 24.9 9 Este 17 Este 0 1017.4 0.1 78
2017-09-06 21:00:00 25.2 10 Este 15 Norte 0 1017.1 -0.3 75
2017-09-06 20:00:00 25.7 8 Este 17 Este 0 1017 -0.6 73
2017-09-06 19:00:00 26.1 10 Este 17 Este 0 1017.3 -0.8 72
2017-09-06 18:00:00 26.8 10 Este 21 Norte 0 1017.4 -1.3 68
2017-09-06 17:00:00 27.9 14 Este 24 Norte 0 1017.6 -1.7 66
2017-09-06 16:00:00 28.2 15 Este 24 Este 0 1018.1 -1.4 65
2017-09-06 15:00:00 28.7 15 Este 26 Este 0 1018.7 -1 65
2017-09-06 14:00:00 27.9 15 Este 24 Este 0 1019.3 -0.3 67
2017-09-06 13:00:00 27.4 15 Este 24 Este 0 1019.5 0.3 69
2017-09-06 12:00:00 27 14 Este 22 Este 0 1019.7 0.4 71
2017-09-06 11:00:00 26.6 12 Este 21 Nordeste 0 1019.6 0.5 74
2017-09-06 10:00:00 25.7 13 Nordeste 21 Norte 0 1019.2 0.5 80
2017-09-06 09:00:00 23.4 4 Norte 9 Noroeste 0 1019.3 1 90
2017-09-06 08:00:00 21.1 2 Noroeste 9 Noroeste 0 1019.1 0.5 96
2017-09-06 07:00:00 20.7 0 Calma 8 Norte 0 1018.7 -0.2 95
2017-09-06 06:00:00 21 7 Noroeste 13 Norte 0 1018.3 -1.2 94
2017-09-06 05:00:00 21 3 Norte 9 Norte 0 1018.6 -1.1 94
2017-09-06 04:00:00 -- 8 Noroeste 9 Noroeste 0 1018.9 -0.8 --
2017-09-06 03:00:00 21.4 4 Noroeste 8 Noroeste 0 1019.5 -0.5 92
2017-09-06 02:00:00 21.7 7 Noroeste 13 Noroeste 0 1019.7 -0.1 90
2017-09-06 01:00:00 22.2 4 Norte 8 Norte 0 1019.7 0.1 87
2017-09-06 00:00:00 24 0 Calma 13 Sudeste 0 1020 1 82
2017-09-05 23:00:00 24.1 4 Sudeste 11 Sudeste 0 1019.8 1.2 81
2017-09-05 22:00:00 24.6 7 Sudeste 15 Este 0 1019.6 0.9 80
2017-09-05 21:00:00 25.2 10 Sudeste 17 Sudeste 0 1019 0.4 78
2017-09-05 20:00:00 26.1 9 Este 17 Este 0 1018.6 -0.3 74
2017-09-05 19:00:00 27.3 12 Sudeste 21 Sudeste 0 1018.7 -0.5 70
2017-09-05 18:00:00 28.3 10 Sur 22 Sudeste 0 1018.6 -1 66
2017-09-05 17:00:00 28.7 13 Sudeste 28 Sudeste 0 1018.9 -0.9 65
2017-09-05 16:00:00 29.6 11 Sudeste 28 Este 0 1019.2 -0.9 63
2017-09-05 15:00:00 29.7 12 Sudeste 26 Este 0 1019.6 -0.6 62
2017-09-05 14:00:00 28.8 15 Este 26 Este 0 1019.8 -0.1 63
2017-09-05 13:00:00 28.2 14 Este 22 Este 0 1020.1 0.6 65
2017-09-05 12:00:00 27.6 13 Este 22 Este 0 1020.2 1 69
2017-09-05 11:00:00 26.8 13 Este 22 Este 0 1019.9 1.1 74
2017-09-05 10:00:00 26 12 Nordeste 18 Nordeste 0 1019.5 1.1 77
2017-09-05 09:00:00 24.7 4 Nordeste 13 Nordeste 0 1019.2 1 79
2017-09-05 08:00:00 21.4 10 Norte 15 Norte 0 1018.8 0.8 91
2017-09-05 07:00:00 20 0 Calma 9 Norte 0 1018.4 0.4 94
2017-09-05 06:00:00 21 9 Norte 11 Norte 0 1018.2 0.2 91
2017-09-05 05:00:00 20.7 4 Norte 15 Norte 0 1018 -0.1 91
2017-09-05 04:00:00 20.9 3 Norte 13 Norte 0 1018 -0.2 89
2017-09-05 03:00:00 21.7 8 Norte 15 Norte 0 1018 0.1 86
2017-09-05 02:00:00 21.3 9 Norte 11 Norte 0 1018.1 1.1 88
2017-09-05 01:00:00 21.6 9 Norte 17 Norte 0 1018.2 1.6 85
2017-09-05 00:00:00 21.7 2 Norte 17 Norte 0 1017.9 2.2 83
2017-09-04 23:00:00 22.2 4 Norte 22 Norte 0 1017 2.2 79
2017-09-04 22:00:00 23.2 11 Noroeste 24 Noroeste 0 1016.6 2.5 74
2017-09-04 21:00:00 25.1 6 Sudeste 17 Sudeste 0 1015.7 2 65
2017-09-04 20:00:00 26.5 11 Sudeste 24 Este 0 1014.8 1.5 60
2017-09-04 19:00:00 27.4 16 Sudeste 28 Sudeste 0 1014.1 0.9 61
2017-09-04 18:00:00 28.1 12 Sudeste 24 Sudeste 0 1013.7 0.6 56
2017-09-04 17:00:00 28.2 13 Este 22 Este 0 1013.3 0.5 63
2017-09-04 16:00:00 27.8 12 Este 22 Este 0 1013.2 0.3 63
2017-09-04 15:00:00 28.6 12 Sur 21 Sur 0 1013.1 0.4 67
2017-09-04 14:00:00 27.6 12 Sudoeste 21 Sudoeste 0 1012.8 0.3 71
2017-09-04 13:00:00 28.2 10 Sur 28 Sur 0 1012.9 0.8 69
2017-09-04 12:00:00 27.9 13 Sur 18 Sur 0 1012.7 1.1 69
2017-09-04 11:00:00 25.9 12 Sur 17 Sur 0 1012.5 1.5 79
2017-09-04 10:00:00 25.7 9 Sur 15 Sur 0 1012.1 1.7 80
2017-09-04 09:00:00 24.9 8 Sur 17 Sur 0 1011.6 0.9 83
2017-09-04 08:00:00 23.8 10 Sur 17 Sur 0 1011 0.3 85
2017-09-04 07:00:00 23.6 11 Sur 17 Sur 0 1010.4 -0.4 85
2017-09-04 06:00:00 23.2 6 Sudeste 11 Sur 0 1010.7 -0.5 87
2017-09-04 05:00:00 23.8 9 Sur 17 Sur 0 1010.7 -1 84
2017-09-04 04:00:00 23.9 11 Sur 21 Sur 0 1010.8 -1.2 82
2017-09-04 03:00:00 23.9 10 Sur 18 Sur 0 1011.2 -0.9 83
2017-09-04 02:00:00 23.9 10 Sur 22 Sur 0 1011.7 -0.5 82
2017-09-04 01:00:00 23.9 14 Sur 21 Sur 0 1012 0 80
2017-09-04 00:00:00 24.1 14 Sur 21 Sur 0 1012.1 0.4 78
2017-09-03 23:00:00 24 8 Sur 18 Sur 0 1012.2 0.6 76
2017-09-03 22:00:00 24.4 12 Sur 21 Sur 0 1012 0.4 72
2017-09-03 21:00:00 24.2 12 Sur 18 Sudoeste 0 1011.7 0 76
2017-09-03 20:00:00 24.9 15 Sur 28 Sudoeste 0 1011.6 -0.5 73
2017-09-03 19:00:00 25.2 19 Sudoeste 32 Sudoeste 0 1011.6 -1.1 69
2017-09-03 18:00:00 26.1 21 Sudoeste 30 Sudoeste 0 1011.7 -1.8 67
2017-09-03 17:00:00 26.5 22 Sur 33 Sudoeste 0 1012.1 -1.8 69
2017-09-03 16:00:00 26.5 24 Sudoeste 33 Sudoeste 0 1012.7 -1.8 66
2017-09-03 15:00:00 26.8 25 Sudoeste 33 Sudoeste 0 1013.5 -1.6 65
2017-09-03 14:00:00 26.5 24 Sur 33 Sur 0 1013.9 -1.7 66
2017-09-03 13:00:00 26.5 21 Sudoeste 32 Sur 0 1014.5 -1 67
2017-09-03 12:00:00 25.6 21 Sudoeste 30 Sudoeste 0 1015.1 -0.4 68
2017-09-03 11:00:00 25.4 21 Sur 28 Sur 0 1015.6 -0.1 70
2017-09-03 10:00:00 24.8 17 Sudoeste 24 Sur 0 1015.5 -0.2 74
2017-09-03 09:00:00 23.5 13 Sudoeste 22 Sur 0 1015.5 -0.6 80
2017-09-03 08:00:00 19.1 4 Noroeste 9 Noroeste 0 1015.7 -0.8 92
2017-09-03 07:00:00 18.2 0 Calma 5 Norte 0 1015.7 -1.3 93
2017-09-03 06:00:00 18.1 5 Norte 9 Noroeste 0 1016.1 -1.4 92
2017-09-03 05:00:00 18.8 4 Norte 13 Norte 0 1016.5 -1.5 89
2017-09-03 04:00:00 18.2 0 Calma 5 Noroeste 0 1017 -1.4 88
2017-09-03 03:00:00 17.8 0 Calma 8 Noroeste 0 1017.5 -1.3 86
2017-09-03 02:00:00 18.1 0 Calma 11 Noroeste 0 1018 -0.6 81
2017-09-03 01:00:00 18.2 5 Noroeste 13 Noroeste 0 1018.4 -0.1 79
2017-09-03 00:00:00 18.6 4 Noroeste 11 Noroeste 0 1018.8 1 77
2017-09-02 23:00:00 19.2 8 Noroeste 15 Norte 0 1018.6 1.2 74
2017-09-02 22:00:00 20.2 8 Noroeste 11 Noroeste 0 1018.5 1.1 70
2017-09-02 21:00:00 21.5 3 Sudeste 17 Este 0 1017.8 0.3 64
2017-09-02 20:00:00 23.6 11 Este 24 Este 0 1017.4 -0.1 59
2017-09-02 19:00:00 24.5 17 Este 28 Norte 0 1017.4 -0.5 56
2017-09-02 18:00:00 25.2 17 Este 30 Este 0 1017.5 -0.7 51
2017-09-02 17:00:00 25.6 21 Este 32 Este 0 1017.5 -1.3 49
2017-09-02 16:00:00 26 21 Este 37 Este 0 1017.9 -1.2 48
2017-09-02 15:00:00 25.8 26 Este 35 Este 0 1018.2 -1.1 52
2017-09-02 14:00:00 26.2 18 Nordeste 30 Este 0 1018.8 -0.3 47
2017-09-02 13:00:00 25.2 17 Este 35 Este 0 1019.1 0.3 55
2017-09-02 12:00:00 25.7 7 Nordeste 26 Noroeste 0 1019.3 1 50
2017-09-02 11:00:00 26.1 12 Noroeste 35 Norte 0 1019.1 1.2 48
2017-09-02 10:00:00 24.7 16 Norte 30 Norte 0 1018.8 1.4 53
2017-09-02 09:00:00 23.5 14 Norte 18 Norte 0 1018.3 1 58
2017-09-02 08:00:00 22.3 8 Norte 18 Noroeste 0 1017.9 1 65
2017-09-02 07:00:00 21.7 3 Nordeste 13 Norte 0 1017.4 0.2 76
2017-09-02 06:00:00 22.2 9 Noroeste 15 Norte 0 1017.3 0.2 71
2017-09-02 05:00:00 23 9 Nordeste 21 Norte 0 1016.9 -0.2 70
2017-09-02 04:00:00 22.5 8 Norte 26 Norte 0 1017.2 0.2 82
2017-09-02 03:00:00 22.2 11 Norte 21 Norte 0 1017.1 0.2 82
2017-09-02 02:00:00 22.3 9 Norte 26 Norte 0 1017.1 0.6 82
2017-09-02 01:00:00 22.8 8 Norte 28 Norte 0 1017 0.8 80
2017-09-02 00:00:00 23 9 Norte 24 Norte 0 1016.9 1.6 78
2017-09-01 23:00:00 23.5 7 Norte 22 Norte 0 1016.5 1.8 76
2017-09-01 22:00:00 24.7 12 Norte 28 Norte 0 1016.2 1.6 71
2017-09-01 21:00:00 24.9 12 Este 24 Nordeste 0 1015.3 0.6 73
2017-09-01 20:00:00 25.3 16 Nordeste 28 Nordeste 0 1014.7 -0.2 69
2017-09-01 19:00:00 26.4 17 Este 30 Nordeste 0 1014.6 -0.4 65
2017-09-01 18:00:00 27.1 18 Nordeste 28 Este 0 1014.7 -0.6 62
2017-09-01 17:00:00 27 20 Este 33 Este 0 1014.9 -0.7 62
2017-09-01 16:00:00 27.6 23 Este 37 Este 0 1015 -0.7 60
2017-09-01 15:00:00 27.6 24 Este 35 Este 0 1015.3 -0.7 62
2017-09-01 14:00:00 27.2 26 Este 37 Norte 0 1015.6 -0.2 63
2017-09-01 13:00:00 26.6 25 Este 37 Este 0 1015.7 0.1 67
2017-09-01 12:00:00 26.4 26 Este 37 Este 0 1016 0.7 69
2017-09-01 11:00:00 25.6 24 Este 35 Nordeste 0 1015.8 1.1 74
2017-09-01 10:00:00 25.8 22 Este 35 Nordeste 0 1015.6 1.2 76
2017-09-01 09:00:00 25.2 21 Este 33 Norte 0 1015.3 1.3 78
2017-09-01 08:00:00 23.6 11 Nordeste 21 Nordeste 0 1014.7 0.3 84
2017-09-01 07:00:00 23.5 15 Nordeste 22 Nordeste 0 1014.4 -0.4 84
2017-09-01 06:00:00 23.7 15 Norte 22 Norte 0 1014 -1.1 85
2017-09-01 05:00:00 23.9 15 Nordeste 21 Norte 0 1014.4 -0.8 85
2017-09-01 04:00:00 23.7 12 Nordeste 17 Nordeste 0 1014.8 -0.8 86
2017-09-01 03:00:00 23.6 11 Norte 22 Este 0 1015.1 -0.7 86
2017-09-01 02:00:00 24.7 13 Nordeste 24 Este 0 1015.2 -0.2 81
2017-09-01 01:00:00 25.2 15 Este 24 Este 0 1015.6 0.4 80
2017-09-01 00:00:00 25.4 19 Este 33 Este 0 1015.8 1.1 80
2017-08-31 23:00:00 25.7 22 Este 39 Este 0 1015.4 0.9 83
2017-08-31 22:00:00 24.9 15 Nordeste 24 Norte 0 1015.2 1.9 82
2017-08-31 21:00:00 25.1 14 Nordeste 26 Norte 0 1014.7 1.8 77
2017-08-31 20:00:00 26.2 15 Nordeste 28 Nordeste 0 1014.5 1.1 74
2017-08-31 19:00:00 26.3 16 Nordeste 32 Este 0 1013.3 -0.8 75
2017-08-31 18:00:00 27.4 21 Este 32 Este 0 1012.9 -1.1 66
2017-08-31 17:00:00 27.9 19 Este 28 Este 0 1013.4 -2.1 64
2017-08-31 16:00:00 27.8 14 Nordeste 32 Norte 0 1014.1 -1.3 61
2017-08-31 15:00:00 26.1 18 Norte 28 Norte 0.2 1014 -1 75
2017-08-31 14:00:00 26.9 12 Sudoeste 22 Sudoeste 0 1015.5 1.4 62
2017-08-31 13:00:00 27.8 14 Sudoeste 22 Sur 0 1015.4 0.7 59
2017-08-31 12:00:00 27.4 9 Oeste 22 Noroeste 0 1015 1 63
2017-08-31 11:00:00 25.7 13 Nordeste 22 Nordeste 0 1014.1 0.9 75
2017-08-31 10:00:00 25.4 2 Sur 11 Norte 0 1014.7 1.8 75
2017-08-31 09:00:00 24.1 3 Oeste 9 Noroeste 0 1014 1.3 80
2017-08-31 08:00:00 23.3 4 Oeste 13 Noroeste 0 1013.2 0.7 80
2017-08-31 07:00:00 22.1 3 Oeste 8 Noroeste 0 1012.9 0.9 76
2017-08-31 06:00:00 22.2 0 Calma 9 Norte 0 1012.7 0.3 75
2017-08-31 05:00:00 22 0 Calma 11 Noroeste 0 1012.5 -0.3 79
2017-08-31 04:00:00 22.6 9 Noroeste 11 Norte 0 1012 -1.6 75
2017-08-31 03:00:00 23.1 4 Norte 9 Nordeste 0 1012.4 -1.4 81
2017-08-31 02:00:00 23.5 4 Oeste 11 Noroeste 0 1012.8 -0.9 79
2017-08-31 01:00:00 23.6 4 Oeste 13 Oeste 0 1013.6 0.2 83
2017-08-31 00:00:00 24 9 Sudoeste 13 Sudoeste 0 1013.8 1 85
2017-08-30 23:00:00 23.8 0 Calma 13 Oeste 0 1013.7 1.1 80
2017-08-30 22:00:00 23.9 8 Sudoeste 13 Oeste 0 1013.4 0.9 83
2017-08-30 21:00:00 24.1 9 Sudoeste 15 Sudoeste 0 1012.8 0 81
2017-08-30 20:00:00 25.1 5 Sudoeste 18 Sudoeste 0 1012.6 -0.6 78
2017-08-30 19:00:00 26 13 Sudoeste 22 Sudoeste 0 1012.5 -1.4 75
2017-08-30 18:00:00 26.4 10 Sudoeste 24 Sudoeste 0 1012.8 -1.5 72
2017-08-30 17:00:00 26.9 17 Sudoeste 30 Sudoeste 0 1013.2 -1 69
2017-08-30 16:00:00 26.5 25 Sudoeste 37 Sudoeste 0 1013.9 -0.7 69
2017-08-30 15:00:00 27.9 20 Sudoeste 30 Sudoeste 0 1014.3 -0.3 60
2017-08-30 14:00:00 26.6 14 Sudoeste 28 Sudoeste 0 1014.2 -0.1 58
2017-08-30 13:00:00 27.8 19 Oeste 39 Sudoeste 0 1014.6 0.3 57
2017-08-30 12:00:00 26.3 13 Sudoeste 24 Sudoeste 0 1014.6 0.5 64
2017-08-30 11:00:00 26 12 Sur 18 Sudoeste 0 1014.3 0 65
2017-08-30 10:00:00 24.4 16 Sudoeste 33 Sudoeste 0 1014.3 0.3 67
2017-08-30 09:00:00 23.9 11 Sudoeste 30 Sudoeste 0 1014.1 0.4 68
2017-08-30 08:00:00 24.1 19 Oeste 32 Oeste 0 1014.3 0.2 63
2017-08-30 07:00:00 23.8 19 Oeste 35 Oeste 0 1014 -0.5 65
2017-08-30 06:00:00 23.1 14 Noroeste 46 Noroeste 0 1013.7 -0.5 73
2017-08-30 05:00:00 22.3 31 Noroeste 52 Noroeste 0 1014.1 -1.5 76
2017-08-30 04:00:00 22.5 29 Oeste 46 Oeste 0 1014.5 0.1 80
2017-08-30 03:00:00 22.6 23 Noroeste 59 Noroeste 0.1 1014.2 2.4 73
2017-08-30 02:00:00 22.8 35 Noroeste 54 Noroeste 0.2 1015.6 3.3 82
2017-08-30 01:00:00 25 22 Noroeste 41 Noroeste 0.1 1014.4 2.3 65
2017-08-30 00:00:00 25.4 19 Nordeste 37 Norte 0 1011.8 -0.9 56
2017-08-29 23:00:00 25.2 17 Norte 33 Norte 0 1012.3 -0.3 70
2017-08-29 22:00:00 25.3 18 Norte 42 Norte 0 1012.1 -0.5 71
2017-08-29 21:00:00 25.6 15 Norte 42 Norte 0 1012.7 0.2 68
2017-08-29 20:00:00 26.2 27 Norte 48 Norte 0 1012.6 0.2 67
2017-08-29 19:00:00 27.2 24 Norte 39 Norte 0 1012.6 0.1 63
2017-08-29 18:00:00 28.2 26 Norte 41 Norte 0 1012.5 -0.2 61
2017-08-29 17:00:00 28.7 8 Nordeste 24 Este 0 1012.4 -0.3 69
2017-08-29 16:00:00 28.4 15 Este 26 Este 0 1012.5 -0.6 71
2017-08-29 15:00:00 29.2 14 Este 22 Este 0 1012.7 -0.3 64
2017-08-29 14:00:00 29.4 9 Este 17 Este 0 1012.7 0 62
2017-08-29 13:00:00 29.3 7 Sur 21 Oeste 0 1013.1 0.6 61
2017-08-29 12:00:00 28.4 15 Oeste 28 Noroeste 0 1013 0.7 62
2017-08-29 11:00:00 25.6 7 Noroeste 15 Noroeste 0 1012.7 0.8 92
2017-08-29 10:00:00 25 0 Calma 11 Norte 0.1 1012.5 0.8 89
2017-08-29 09:00:00 24.1 3 Nordeste 11 Noroeste 0 1012.3 0.5 87
2017-08-29 08:00:00 23.8 4 Norte 11 Norte 0 1011.9 0.2 91
2017-08-29 07:00:00 23.3 5 Sudeste 11 Noroeste 0 1011.7 -0.2 94
2017-08-29 06:00:00 23.6 3 Noroeste 9 Oeste 0 1011.8 -0.2 93
2017-08-29 05:00:00 22 3 Sudoeste 11 Norte 0 1011.7 0 93
2017-08-29 04:00:00 21.6 4 Norte 11 Noroeste 0 1011.9 -0.3 88
2017-08-29 03:00:00 22.2 9 Noroeste 13 Norte 0 1012 -0.8 91
2017-08-29 02:00:00 23.9 2 Oeste 13 Noroeste 0 1011.7 -1.3 91
2017-08-29 01:00:00 24.6 7 Noroeste 17 Sudoeste 0 1012.2 -0.2 90
2017-08-29 00:00:00 25.6 7 Sudoeste 15 Sur 0 1012.8 0.8 89
2017-08-28 23:00:00 24.6 2 Sudeste 11 Sur 0 1013 1.2 82
2017-08-28 22:00:00 24.8 5 Noroeste 9 Noroeste 0 1012.4 0.1 78
2017-08-28 21:00:00 25.1 0 Calma 9 Este 0 1012 -0.1 82
2017-08-28 20:00:00 26.9 2 Noroeste 22 Sudoeste 0 1011.8 -0.6 74
2017-08-28 19:00:00 27 14 Sudoeste 26 Sudoeste 0 1012.3 -0.9 83
2017-08-28 18:00:00 28.1 14 Sudoeste 21 Sudoeste 0 1012.1 -1.6 81
2017-08-28 17:00:00 28.6 9 Sur 24 Sudoeste 0 1012.4 -1.2 75
2017-08-28 16:00:00 27.6 17 Sudoeste 26 Sudoeste 0 1013.2 0 83
2017-08-28 15:00:00 27.7 19 Sudoeste 28 Sudoeste 0 1013.7 0.9 85
2017-08-28 14:00:00 28 13 Sur 28 Sur 0 1013.6 0.9 82
2017-08-28 13:00:00 28.1 12 Este 28 Este 0 1013.2 0.3 82
2017-08-28 12:00:00 27.9 17 Este 24 Este 0 1012.8 0.2 80
2017-08-28 11:00:00 28.1 14 Este 21 Este 0 1012.7 0.1 78
2017-08-28 10:00:00 27.4 10 Nordeste 21 Norte 0 1012.9 0.7 78
2017-08-28 09:00:00 25.3 4 Norte 18 Norte 0 1012.6 0.6 78
2017-08-28 08:00:00 24.5 3 Norte 13 Noroeste 0 1012.6 0.3 78
2017-08-28 07:00:00 23.3 0 Calma 5 Norte 0 1012.2 -0.1 84
2017-08-28 06:00:00 23.4 0 Calma 22 Nordeste 0 1012 -0.6 76
2017-08-28 05:00:00 23.6 6 Noroeste 11 Oeste 0 1012.3 -0.6 72
2017-08-28 04:00:00 24.6 2 Norte 15 Norte 0 1012.3 -1.1 72
2017-08-28 03:00:00 24.5 0 Calma 8 Nordeste 0 1012.6 -1.2 77
2017-08-28 02:00:00 23.6 6 Nordeste 21 Norte 0 1012.9 -0.9 87
2017-08-28 01:00:00 24.7 9 Norte 28 Norte 0 1013.4 -0.4 88
2017-08-28 00:00:00 25.1 9 Nordeste 18 Nordeste 0 1013.8 0.6 88
2017-08-27 23:00:00 25.6 12 Nordeste 24 Nordeste 0 1013.8 1.3 85
2017-08-27 22:00:00 26.5 9 Nordeste 26 Noroeste 0 1013.8 1.5 78
2017-08-27 21:00:00 27.1 11 Noroeste 28 Oeste 0 1013.2 0.6 78
2017-08-27 20:00:00 27.6 8 Este 15 Este 0 1012.5 -0.1 76
2017-08-27 19:00:00 27.5 9 Este 17 Este 0 1012.3 -0.8 77
2017-08-27 18:00:00 27.9 11 Este 21 Sudeste 0 1012.6 -1.1 80
2017-08-27 17:00:00 28.4 15 Este 24 Este 0 1012.6 -0.8 76
2017-08-27 16:00:00 28.7 14 Este 24 Nordeste 0 1013.1 -0.2 77
2017-08-27 15:00:00 27.9 13 Este 28 Este 0 1013.7 0 79
2017-08-27 14:00:00 28.2 20 Este 30 Este 0 1013.4 -0.2 78
2017-08-27 13:00:00 28.4 17 Este 24 Este 0 1013.3 -0.3 77
2017-08-27 12:00:00 29 14 Este 22 Este 0 1013.7 0.2 73
2017-08-27 11:00:00 28.3 12 Nordeste 21 Este 0 1013.6 1.4 77
2017-08-27 10:00:00 27.3 13 Este 18 Este 0 1013.6 1.2 83
2017-08-27 09:00:00 26 5 Nordeste 17 Este 0 1013.5 0.9 88
2017-08-27 08:00:00 24.2 14 Nordeste 21 Nordeste 0 1012.2 -0.2 92
2017-08-27 07:00:00 24.2 14 Nordeste 22 Este 0 1012.4 -0.9 92
2017-08-27 06:00:00 24.3 9 Nordeste 18 Norte 0 1012.6 -0.8 89
2017-08-27 05:00:00 22.3 0 Calma 8 Noroeste 0 1012.4 -1.7 93
2017-08-27 04:00:00 24 6 Oeste 11 Noroeste 0 1013.3 -1 87
2017-08-27 03:00:00 24 10 Norte 21 Nordeste 0 1013.4 -1.1 89
2017-08-27 02:00:00 24.2 9 Norte 24 Norte 0 1014.1 0 90
2017-08-27 01:00:00 24.7 11 Norte 18 Este 0 1014.3 -0.1 88
2017-08-27 00:00:00 25.9 10 Este 17 Este 0 1014.5 1.1 85
2017-08-26 23:00:00 25.2 9 Nordeste 21 Nordeste 0 1014.1 2.2 85
2017-08-26 22:00:00 25.3 7 Norte 30 Norte 0 1014.4 2.3 83
2017-08-26 21:00:00 26.2 8 Nordeste 24 Nordeste 0 1013.4 0.4 85
2017-08-26 20:00:00 26.7 15 Nordeste 26 Nordeste 0 1011.9 -1.5 82
2017-08-26 19:00:00 27.6 18 Nordeste 26 Este 0 1012.1 -1.6 78
2017-08-26 18:00:00 28.2 16 Este 28 Este 0 1013 -1 74
2017-08-26 17:00:00 28.6 19 Este 28 Este 0 1013.4 -0.7 72
2017-08-26 16:00:00 28.8 19 Este 28 Este 0 1013.7 -0.6 70
2017-08-26 15:00:00 28.7 16 Este 28 Este 0 1014 -0.7 71
2017-08-26 14:00:00 28.8 21 Este 30 Este 0 1014.1 -0.2 72
2017-08-26 13:00:00 28.8 20 Este 30 Este 0 1014.3 -- 69
2017-08-26 12:00:00 28.4 15 Este 28 Este 0 1014.7 -- 71
2017-08-26 11:00:00 27.9 18 Nordeste 28 Este 0 1014.3 -- 74
2017-08-26 10:00:00 27.1 14 Este 24 Norte 0 -- -- 77
2017-08-26 09:00:00 25.8 9 Norte 21 Norte 0 -- -- 82
2017-08-26 08:00:00 23.8 6 Norte 21 Norte 0 -- -- 90
2017-08-26 07:00:00 24.2 10 Norte 17 Norte 0 1013.6 -0.3 90
2017-08-26 06:00:00 25.1 8 Nordeste 17 Este 0 1013.1 -0.8 87
2017-08-26 05:00:00 25.4 12 Este 22 Este 0 1013.4 -1.4 85
2017-08-26 04:00:00 25.5 10 Este 22 Este 0 1013.9 -1.3 84
2017-08-26 03:00:00 25.6 14 Este 24 Este 0 1013.9 -2 84
2017-08-26 02:00:00 25.5 12 Este 21 Este 0 1014.8 -1.2 86
2017-08-26 01:00:00 24.5 9 Norte 17 Norte 0 1015.2 0.7 86
2017-08-26 00:00:00 25 6 Nordeste 24 Noroeste 0 1015.9 2.6 84
2017-08-25 23:00:00 25.9 13 Noroeste 21 Noroeste 0 1016 2.6 84
2017-08-25 22:00:00 26 14 Este 22 Nordeste 0 1014.5 0.8 84
2017-08-25 21:00:00 26 14 Este 21 Este 0 1013.3 -0.8 84
2017-08-25 20:00:00 26.6 11 Este 21 Este 0 1013.4 -1.1 80
2017-08-25 19:00:00 27.6 12 Este 18 Norte 0 1013.7 -1.1 76
2017-08-25 18:00:00 27.5 12 Este 18 Norte 0 1014.1 -1 74
2017-08-25 17:00:00 29.2 12 Nordeste 17 Este 0 1014.5 -1.1 62
2017-08-25 16:00:00 28.5 10 Este 21 Este 0 1014.8 -0.9 69
2017-08-25 15:00:00 28.3 14 Este 22 Este 0 1015.1 -0.7 70
2017-08-25 14:00:00 28.7 11 Este 21 Este 0 1015.6 0 69
2017-08-25 13:00:00 28.6 10 Este 22 Este 0 1015.7 0.6 70
2017-08-25 12:00:00 28.2 13 Este 24 Este 0 1015.8 0.9 70
2017-08-25 11:00:00 27.9 14 Este 24 Este 0 1015.6 0.6 73
2017-08-25 10:00:00 26.8 15 Este 22 Este 0 1015.1 0.3 76
2017-08-25 09:00:00 26.5 11 Este 17 Este 0 1014.9 0.4 78
2017-08-25 08:00:00 23.3 6 Norte 9 Norte 0 1015 0.6 92
2017-08-25 07:00:00 23.6 7 Norte 15 Norte 0 1014.8 0.1 92
2017-08-25 06:00:00 22.8 8 Norte 11 Norte 0 1014.5 -0.4 93
2017-08-25 05:00:00 23.1 9 Norte 11 Norte 0 1014.4 -0.7 93
2017-08-25 04:00:00 24.5 5 Este 11 Norte 0 1014.7 -0.4 88
2017-08-25 03:00:00 24.8 6 Este 15 Este 0 1014.9 -0.2 88
2017-08-25 02:00:00 25.3 11 Este 18 Norte 0 1015.1 -0.1 87
2017-08-25 01:00:00 25.4 10 Este 18 Este 0 1015.1 0.3 87
2017-08-25 00:00:00 25.5 12 Este 21 Este 0 1015.1 0.6 87
2017-08-24 23:00:00 25.6 12 Este 21 Este 0 1015.2 0.9 86
2017-08-24 22:00:00 25.8 12 Este 18 Este 0 1014.8 0.5 85
2017-08-24 21:00:00 26 13 Este 21 Este 0 1014.5 -0.3 83
2017-08-24 20:00:00 26.8 11 Este 17 Este 0 1014.3 -0.7 78
2017-08-24 19:00:00 27.7 12 Este 21 Este 0 1014.3 -1 74
2017-08-24 18:00:00 28.2 13 Este 22 Este 0 1014.8 -0.9 72
2017-08-24 17:00:00 28.3 13 Este 24 Este 0 1015 -1 71
2017-08-24 16:00:00 28.3 14 Este 24 Este 0 1015.3 -0.9 69
2017-08-24 15:00:00 28.7 12 Este 24 Este 0 1015.7 -0.5 64
2017-08-24 14:00:00 28.6 15 Este 26 Este 0 1016 0.1 67
2017-08-24 13:00:00 28.6 15 Nordeste 28 Este 0 1016.2 0.5 68
2017-08-24 12:00:00 27.9 19 Nordeste 30 Nordeste 0 1016.2 0.7 71
2017-08-24 11:00:00 27.5 22 Este 32 Nordeste 0 1015.9 0.6 70
2017-08-24 10:00:00 27.1 17 Este 28 Nordeste 0 1015.7 0.5 72
2017-08-24 09:00:00 25.2 14 Nordeste 21 Nordeste 0 1015.5 0.9 81
2017-08-24 08:00:00 22.8 9 Norte 22 Nordeste 0 1015.3 0.7 90
2017-08-24 07:00:00 21.3 11 Norte 22 Norte 0 1015.2 0.6 94
2017-08-24 06:00:00 21.1 5 Norte 9 Norte 0 1014.6 0 94
2017-08-24 05:00:00 21.2 3 Norte 13 Noroeste 0 1014.6 -0.4 94
2017-08-24 04:00:00 21 5 Noroeste 18 Noroeste 0 1014.6 -0.6 93
2017-08-24 03:00:00 21.6 8 Norte 11 Norte 0 1014.6 -0.5 92
2017-08-24 02:00:00 22.1 4 Norte 8 Noroeste 0 1015 -0.2 90
2017-08-24 01:00:00 23.9 4 Este 13 Este 0 1015.2 0.2 87
2017-08-24 00:00:00 24.8 8 Este 15 Este 0 1015.1 0.6 84
2017-08-23 23:00:00 24.9 8 Este 13 Este 0 1015.2 0.6 83
2017-08-23 22:00:00 25.1 7 Este 17 Sudeste 0 1015 0.2 82
2017-08-23 21:00:00 25.4 8 Este 17 Este 0 1014.5 -0.6 80
2017-08-23 20:00:00 26.4 13 Este 21 Este 0 1014.6 -0.6 77
2017-08-23 19:00:00 27.4 12 Este 26 Este 0 1014.8 -0.8 74
2017-08-23 18:00:00 27.9 15 Este 24 Este 0 1015.1 -1 72
2017-08-23 17:00:00 28.2 13 Este 24 Este 0 1015.2 -1.2 70
2017-08-23 16:00:00 28.4 14 Este 24 Este 0 1015.6 -0.8 68
2017-08-23 15:00:00 28.4 15 Este 26 Este 0 1016.1 -0.4 68
2017-08-23 14:00:00 28.2 15 Este 26 Este 0 1016.4 0.2 69
2017-08-23 13:00:00 28.1 14 Este 26 Este 0 1016.4 0.6 70
2017-08-23 12:00:00 27.8 13 Este 22 Este 0 1016.5 1.2 70
2017-08-23 11:00:00 26.9 16 Nordeste 24 Este 0 1016.2 1.3 73
2017-08-23 10:00:00 26.4 13 Este 18 Este 0 1015.8 1.3 76
2017-08-23 09:00:00 24.9 4 Nordeste 13 Norte 0 1015.3 1 82
2017-08-23 08:00:00 20.9 8 Norte 13 Norte 0 1014.9 0.4 93
2017-08-23 07:00:00 20.7 6 Norte 11 Norte 0 1014.5 -0.1 94
2017-08-23 06:00:00 20.5 7 Noroeste 9 Norte 0 1014.3 -0.6 93
2017-08-23 05:00:00 20.9 9 Noroeste 13 Norte 0 1014.5 -0.5 93
2017-08-23 04:00:00 20.9 3 Norte 9 Noroeste 0 1014.6 -0.4 92
2017-08-23 03:00:00 21.2 6 Noroeste 8 Noroeste 0 1014.9 0.2 91
2017-08-23 02:00:00 21.6 6 Noroeste 8 Norte 0 1015 0.6 89
2017-08-23 01:00:00 22.6 4 Noroeste 11 Sudeste 0 1015 0.6 85
2017-08-23 00:00:00 24 4 Sudeste 15 Sudeste 0 1014.7 0.5 82
2017-08-22 23:00:00 24.1 5 Sudeste 15 Sudeste 0 1014.4 0.2 78
2017-08-22 22:00:00 24.5 8 Sudeste 15 Sudeste 0 1014.4 -0.1 77
2017-08-22 21:00:00 25.2 10 Sudeste 17 Sudeste 0 1014.2 -0.7 78
2017-08-22 20:00:00 26.4 12 Este 18 Este 0 1014.2 -0.9 73
2017-08-22 19:00:00 27.2 12 Este 21 Este 0 1014.5 -1.1 68
2017-08-22 18:00:00 27.5 13 Este 21 Este 0 1014.9 -1.1 66
2017-08-22 17:00:00 27.9 14 Este 24 Este 0 1015.1 -1.3 66
2017-08-22 16:00:00 28.2 13 Este 22 Este 0 1015.6 -1.2 66
2017-08-22 15:00:00 28.6 17 Este 24 Este 0 1016 -1.2 64
2017-08-22 14:00:00 28.3 15 Este 22 Sudeste 0 1016.4 -0.7 66
2017-08-22 13:00:00 28.2 13 Este 24 Este 0 1016.8 -0.3 67
2017-08-22 12:00:00 27.7 14 Este 22 Este 0 1017.2 0.3 67
2017-08-22 11:00:00 27.1 11 Este 17 Sudeste 0 1017.1 0.5 69
2017-08-22 10:00:00 26.3 5 Este 13 Nordeste 0 1017.1 0.7 73
2017-08-22 09:00:00 24.7 0 Calma 11 Norte 0 1016.9 0.6 77
2017-08-22 08:00:00 20.6 4 Norte 15 Noroeste 0 1016.6 0.1 91
2017-08-22 07:00:00 20.1 0 Calma 5 Oeste 0 1016.4 0.1 93
2017-08-22 06:00:00 20.2 0 Calma 8 Oeste 0 1016.3 0 93
2017-08-22 05:00:00 20.9 2 Noroeste 11 Sudeste 0 1016.5 -0.2 92
2017-08-22 04:00:00 20.8 3 Noroeste 5 Noroeste 0 1016.3 -0.7 90
2017-08-22 03:00:00 21.4 4 Noroeste 13 Norte 0 1016.3 -0.7 86
2017-08-22 02:00:00 21.7 0 Calma 21 Noroeste 0 1016.7 -0.2 85
2017-08-22 01:00:00 21.8 6 Noroeste 15 Norte 0 1017 0.3 84
2017-08-22 00:00:00 22.1 0 Calma 21 Norte 0 1017 0.8 82